Time,TemperatureF,DewpointF,PressureIn,WindDirection,WindDirectionDegrees,WindSpeedMPH,WindSpeedGustMPH,Humidity,HourlyPrecipIn,Conditions,Clouds,dailyrainin,SoftwareType,DateUTC
2013-01-23 06:03:00,34.2,32.3,29.63,WSW,248,0.0,0.0,93,0.00,,,0.00,WUHU216HW,2013-01-23 14:03:00,
2013-01-23 06:08:00,34.2,32.3,29.63,WSW,248,0.0,0.0,93,0.00,,,0.00,WUHU216HW,2013-01-23 14:08:00,
2013-01-23 06:50:00,34.7,33.1,29.60,NNW,338,0.0,0.0,94,0.00,,,0.00,WUHU216HW,2013-01-23 14:50:00,
2013-01-23 06:55:00,34.9,33.3,29.60,NNW,338,0.0,0.0,94,0.00,,,0.00,WUHU216HW,2013-01-23 14:55:00,
2013-01-23 07:00:00,34.7,33.1,29.60,NNW,338,0.0,0.0,94,0.00,,,0.00,WUHU216HW,2013-01-23 15:00:00,
2013-01-23 07:05:00,34.7,33.1,29.59,NNW,338,0.0,0.0,94,0.00,,,0.00,WUHU216HW,2013-01-23 15:05:00,
2013-01-23 07:10:00,34.7,33.1,29.60,NNW,338,0.0,0.0,94,0.00,,,0.00,WUHU216HW,2013-01-23 15:10:00,
2013-01-23 07:15:00,34.7,33.1,29.60,NNW,338,0.0,0.0,94,0.00,,,0.00,WUHU216HW,2013-01-23 15:15:00,
2013-01-23 07:20:00,34.7,33.1,29.60,NNW,338,0.0,0.0,94,0.00,,,0.00,WUHU216HW,2013-01-23 15:20:00,
2013-01-23 07:25:00,34.6,32.9,29.60,NNW,338,0.0,0.0,94,0.00,,,0.00,WUHU216HW,2013-01-23 15:25:00,
2013-01-23 07:30:00,34.6,32.9,29.60,NNW,338,0.0,0.0,94,0.00,,,0.00,WUHU216HW,2013-01-23 15:30:00,
2013-01-23 07:35:00,34.7,33.1,29.60,NNW,338,0.0,0.0,94,0.00,,,0.00,WUHU216HW,2013-01-23 15:35:00,
2013-01-23 07:40:00,34.7,33.1,29.60,NNW,338,0.0,0.0,94,0.00,,,0.00,WUHU216HW,2013-01-23 15:40:00,
2013-01-23 07:45:00,34.7,33.1,29.59,NNW,338,0.0,0.0,94,0.00,,,0.00,WUHU216HW,2013-01-23 15:45:00,
2013-01-23 07:50:00,34.7,33.1,29.59,NNW,338,0.0,0.0,94,0.00,,,0.00,WUHU216HW,2013-01-23 15:50:00,
2013-01-23 07:55:00,34.7,33.1,29.60,NW,315,0.2,0.4,94,0.00,,,0.00,WUHU216HW,2013-01-23 15:55:00,
2013-01-23 08:00:00,34.7,33.1,29.60,NNW,338,0.0,0.7,94,0.00,,,0.00,WUHU216HW,2013-01-23 16:00:00,
2013-01-23 08:05:00,34.9,33.3,29.60,NNW,338,0.0,0.7,94,0.00,,,0.00,WUHU216HW,2013-01-23 16:05:00,
2013-01-23 08:10:00,34.9,33.3,29.60,NNW,338,0.0,0.0,94,0.00,,,0.00,WUHU216HW,2013-01-23 16:10:00,
2013-01-23 08:15:00,34.9,33.3,29.60,WNW,293,0.0,0.0,94,0.00,,,0.00,WUHU216HW,2013-01-23 16:15:00,
2013-01-23 08:20:00,34.9,33.3,29.60,WNW,293,0.0,0.0,94,0.00,,,0.00,WUHU216HW,2013-01-23 16:20:00,
2013-01-23 08:25:00,34.9,33.3,29.59,WNW,293,0.0,0.0,94,0.00,,,0.00,WUHU216HW,2013-01-23 16:25:00,
2013-01-23 08:30:00,34.9,33.3,29.59,NW,315,0.0,0.4,94,0.00,,,0.00,WUHU216HW,2013-01-23 16:30:00,
2013-01-23 08:35:00,35.1,33.5,29.59,West,270,0.0,0.4,94,0.00,,,0.00,WUHU216HW,2013-01-23 16:35:00,
2013-01-23 08:40:00,35.1,33.5,29.58,WNW,293,0.0,0.4,94,0.00,,,0.00,WUHU216HW,2013-01-23 16:40:00,
2013-01-23 08:45:00,34.9,33.3,29.59,NNE,23,0.0,0.0,94,0.00,,,0.00,WUHU216HW,2013-01-23 16:45:00,
2013-01-23 08:50:00,35.1,33.5,29.59,NNE,23,0.0,0.2,94,0.00,,,0.00,WUHU216HW,2013-01-23 16:50:00,
2013-01-23 08:55:00,35.5,33.8,29.60,NNE,23,0.0,0.2,94,0.00,,,0.00,WUHU216HW,2013-01-23 16:55:00,
2013-01-23 09:00:00,35.6,34.0,29.60,SSW,203,0.0,0.9,94,0.00,,,0.00,WUHU216HW,2013-01-23 17:00:00,
2013-01-23 09:05:00,36.0,34.4,29.60,SE,135,0.0,0.9,94,0.00,,,0.00,WUHU216HW,2013-01-23 17:05:00,
2013-01-23 09:10:00,36.0,34.4,29.60,SE,135,0.0,0.0,94,0.00,,,0.00,WUHU216HW,2013-01-23 17:10:00,
2013-01-23 09:15:00,36.0,34.4,29.61,SW,225,0.0,1.1,94,0.00,,,0.00,WUHU216HW,2013-01-23 17:15:00,
2013-01-23 09:20:00,36.2,34.6,29.61,SW,225,0.0,1.1,94,0.00,,,0.00,WUHU216HW,2013-01-23 17:20:00,
2013-01-23 09:25:00,36.4,34.7,29.61,SW,225,0.0,0.0,94,0.00,,,0.00,WUHU216HW,2013-01-23 17:25:00,
2013-01-23 09:30:00,36.4,34.7,29.61,East,90,0.0,0.4,94,0.00,,,0.00,WUHU216HW,2013-01-23 17:30:00,
2013-01-23 09:35:00,36.4,34.5,29.60,East,90,0.0,0.7,93,0.00,,,0.00,WUHU216HW,2013-01-23 17:35:00,
2013-01-23 09:40:00,36.4,34.5,29.61,East,90,0.0,0.7,93,0.00,,,0.00,WUHU216HW,2013-01-23 17:40:00,
2013-01-23 09:45:00,36.5,34.7,29.62,South,180,0.0,1.6,93,0.00,,,0.00,WUHU216HW,2013-01-23 17:45:00,
2013-01-23 09:50:00,36.7,34.8,29.61,SE,135,0.0,1.6,93,0.00,,,0.00,WUHU216HW,2013-01-23 17:50:00,
2013-01-23 09:55:00,36.7,34.8,29.61,SE,135,0.0,0.0,93,0.00,,,0.00,WUHU216HW,2013-01-23 17:55:00,
2013-01-23 10:00:00,36.7,34.8,29.61,SE,135,0.0,0.0,93,0.00,,,0.00,WUHU216HW,2013-01-23 18:00:00,
2013-01-23 10:05:00,36.7,34.8,29.61,ESE,113,0.0,0.2,93,0.00,,,0.00,WUHU216HW,2013-01-23 18:05:00,
2013-01-23 10:10:00,36.9,35.0,29.61,ESE,113,0.0,0.2,93,0.00,,,0.00,WUHU216HW,2013-01-23 18:10:00,
2013-01-23 10:15:00,37.1,35.2,29.62,ESE,113,0.0,0.2,93,0.00,,,0.00,WUHU216HW,2013-01-23 18:15:00,
2013-01-23 10:20:00,37.4,35.6,29.62,ESE,113,0.0,0.2,93,0.00,,,0.00,WUHU216HW,2013-01-23 18:20:00,
2013-01-23 10:25:00,37.4,35.3,29.61,ENE,68,0.0,0.4,92,0.00,,,0.00,WUHU216HW,2013-01-23 18:25:00,
2013-01-23 10:30:00,37.3,35.1,29.61,NE,45,0.0,0.4,92,0.00,,,0.00,WUHU216HW,2013-01-23 18:30:00,
2013-01-23 10:35:00,37.3,35.1,29.61,NE,45,0.0,1.1,92,0.00,,,0.00,WUHU216HW,2013-01-23 18:35:00,
2013-01-23 10:40:00,37.3,35.1,29.60,NE,45,0.0,1.1,92,0.00,,,0.00,WUHU216HW,2013-01-23 18:40:00,
2013-01-23 10:45:00,37.1,34.7,29.61,NE,45,0.4,0.7,91,0.00,,,0.00,WUHU216HW,2013-01-23 18:45:00,
2013-01-23 10:50:00,37.1,34.9,29.62,SE,135,0.0,0.7,92,0.00,,,0.00,WUHU216HW,2013-01-23 18:50:00,
2013-01-23 10:55:00,37.4,35.3,29.63,SW,225,0.0,1.1,92,0.00,,,0.00,WUHU216HW,2013-01-23 18:55:00,
2013-01-23 11:00:00,37.8,35.6,29.63,SW,225,0.0,1.1,92,0.00,,,0.00,WUHU216HW,2013-01-23 19:00:00,
2013-01-23 11:05:00,38.0,35.8,29.63,SW,225,0.0,0.9,92,0.00,,,0.00,WUHU216HW,2013-01-23 19:05:00,
2013-01-23 11:10:00,38.0,35.8,29.63,SW,225,0.0,0.7,92,0.00,,,0.00,WUHU216HW,2013-01-23 19:10:00,
2013-01-23 11:15:00,38.2,36.0,29.63,SSW,203,0.9,1.1,92,0.00,,,0.00,WUHU216HW,2013-01-23 19:15:00,
2013-01-23 11:20:00,38.2,36.0,29.63,SSW,203,0.0,1.1,92,0.01,,,0.01,WUHU216HW,2013-01-23 19:20:00,
2013-01-23 11:25:00,38.3,36.2,29.63,SSW,203,0.0,0.9,92,0.01,,,0.01,WUHU216HW,2013-01-23 19:25:00,
2013-01-23 11:30:00,38.2,36.0,29.63,SSW,203,0.2,1.1,92,0.01,,,0.01,WUHU216HW,2013-01-23 19:30:00,
2013-01-23 11:35:00,38.2,36.0,29.63,WSW,248,0.0,1.3,92,0.01,,,0.01,WUHU216HW,2013-01-23 19:35:00,
2013-01-23 11:40:00,38.2,36.0,29.63,SSW,203,0.4,1.6,92,0.01,,,0.01,WUHU216HW,2013-01-23 19:40:00,
2013-01-23 11:45:00,38.2,36.0,29.62,SW,225,0.2,1.6,92,0.01,,,0.01,WUHU216HW,2013-01-23 19:45:00,
2013-01-23 11:50:00,38.3,35.9,29.62,SW,225,0.0,0.9,91,0.01,,,0.01,WUHU216HW,2013-01-23 19:50:00,
2013-01-23 11:55:00,38.3,35.9,29.62,SSW,203,0.0,1.1,91,0.01,,,0.01,WUHU216HW,2013-01-23 19:55:00,
2013-01-23 12:00:00,38.5,36.1,29.62,SSW,203,0.2,1.1,91,0.01,,,0.01,WUHU216HW,2013-01-23 20:00:00,
2013-01-23 12:05:00,38.5,36.1,29.62,SSW,203,0.0,0.4,91,0.01,,,0.01,WUHU216HW,2013-01-23 20:05:00,
2013-01-23 12:10:00,38.5,36.1,29.61,SSW,203,0.4,0.7,91,0.01,,,0.01,WUHU216HW,2013-01-23 20:10:00,
2013-01-23 12:15:00,38.5,36.1,29.61,SSW,203,0.0,0.7,91,0.00,,,0.01,WUHU216HW,2013-01-23 20:15:00,
2013-01-23 12:20:00,38.5,36.1,29.62,SSW,203,0.4,0.4,91,0.00,,,0.01,WUHU216HW,2013-01-23 20:20:00,
2013-01-23 12:25:00,38.5,36.1,29.62,SW,225,0.0,1.1,91,0.00,,,0.01,WUHU216HW,2013-01-23 20:25:00,
2013-01-23 12:30:00,38.5,36.1,29.62,SW,225,0.7,1.1,91,0.00,,,0.01,WUHU216HW,2013-01-23 20:30:00,
2013-01-23 12:31:00,38.5,36.1,29.62,SSW,203,0.0,1.1,91,0.00,,,0.01,WUHU216HW,2013-01-23 20:31:00,
2013-01-23 16:09:00,38.5,36.1,29.62,SSW,203,0.0,0.0,91,0.00,,,0.01,WUHU216HW,2013-01-24 00:09:00,
2013-01-23 16:10:00,38.5,36.1,29.62,SSW,203,0.0,0.0,91,0.00,,,0.01,WUHU216HW,2013-01-24 00:10:00,
2013-01-23 16:15:00,38.5,36.1,29.62,SSW,203,0.0,0.0,91,0.00,,,0.01,WUHU216HW,2013-01-24 00:15:00,
2013-01-23 17:00:00,38.5,36.6,29.71,SSW,203,0.4,0.4,93,0.00,,,0.01,WUHU216HW,2013-01-24 01:00:00,
2013-01-23 17:05:00,38.5,36.6,29.71,SSW,203,0.0,0.4,93,0.00,,,0.04,WUHU216HW,2013-01-24 01:05:00,
2013-01-23 17:10:00,38.3,36.5,29.72,SSW,203,0.0,0.4,93,0.00,,,0.04,WUHU216HW,2013-01-24 01:10:00,
2013-01-23 17:15:00,38.3,36.5,29.72,SW,225,0.0,0.4,93,0.00,,,0.04,WUHU216HW,2013-01-24 01:15:00,
2013-01-23 17:20:00,38.2,36.3,29.72,SW,225,0.0,0.4,93,0.00,,,0.04,WUHU216HW,2013-01-24 01:20:00,
2013-01-23 17:25:00,38.2,36.3,29.73,SW,225,0.0,0.0,93,0.00,,,0.04,WUHU216HW,2013-01-24 01:25:00,
2013-01-23 17:30:00,38.2,36.3,29.73,SW,225,0.0,0.0,93,0.00,,,0.04,WUHU216HW,2013-01-24 01:30:00,
2013-01-23 17:35:00,38.2,36.3,29.73,SW,225,0.0,0.0,93,0.00,,,0.04,WUHU216HW,2013-01-24 01:35:00,
2013-01-23 17:40:00,38.2,36.3,29.73,SW,225,0.0,0.0,93,0.01,,,0.05,WUHU216HW,2013-01-24 01:40:00,
2013-01-23 17:45:00,38.2,36.3,29.74,SW,225,0.0,0.0,93,0.01,,,0.05,WUHU216HW,2013-01-24 01:45:00,
2013-01-23 17:50:00,38.2,36.3,29.74,SW,225,0.0,0.0,93,0.01,,,0.05,WUHU216HW,2013-01-24 01:50:00,
2013-01-23 17:55:00,38.0,36.1,29.74,SW,225,0.0,0.0,93,0.01,,,0.05,WUHU216HW,2013-01-24 01:55:00,
2013-01-23 18:00:00,38.0,36.1,29.75,SW,225,0.0,0.0,93,0.01,,,0.05,WUHU216HW,2013-01-24 02:00:00,
2013-01-23 18:05:00,38.0,36.1,29.75,SW,225,0.2,0.2,93,0.01,,,0.05,WUHU216HW,2013-01-24 02:05:00,
2013-01-23 18:10:00,38.2,36.3,29.75,SW,225,0.0,1.1,93,0.01,,,0.05,WUHU216HW,2013-01-24 02:10:00,
2013-01-23 18:15:00,38.2,36.3,29.75,SW,225,0.0,1.1,93,0.01,,,0.05,WUHU216HW,2013-01-24 02:15:00,
2013-01-23 18:20:00,38.2,36.3,29.76,SW,225,0.0,0.4,93,0.01,,,0.05,WUHU216HW,2013-01-24 02:20:00,
2013-01-23 18:25:00,38.2,36.3,29.76,SW,225,0.0,0.0,93,0.01,,,0.05,WUHU216HW,2013-01-24 02:25:00,
2013-01-23 18:30:00,38.0,36.1,29.76,SW,225,0.0,0.0,93,0.01,,,0.05,WUHU216HW,2013-01-24 02:30:00,
2013-01-23 18:35:00,38.0,36.1,29.76,SW,225,0.0,0.0,93,0.01,,,0.05,WUHU216HW,2013-01-24 02:35:00,
2013-01-23 18:40:00,37.8,35.9,29.76,SW,225,0.0,0.0,93,0.00,,,0.05,WUHU216HW,2013-01-24 02:40:00,
2013-01-23 18:45:00,37.8,35.9,29.76,SSE,158,0.0,0.2,93,0.00,,,0.05,WUHU216HW,2013-01-24 02:45:00,
2013-01-23 18:50:00,37.8,35.9,29.76,SSE,158,0.0,0.2,93,0.00,,,0.05,WUHU216HW,2013-01-24 02:50:00,
2013-01-23 18:55:00,37.8,35.9,29.76,SSE,158,0.0,0.0,93,0.00,,,0.05,WUHU216HW,2013-01-24 02:55:00,
2013-01-23 19:00:00,37.8,35.9,29.77,SSE,158,0.0,0.0,93,0.00,,,0.05,WUHU216HW,2013-01-24 03:00:00,
2013-01-23 19:05:00,37.6,35.7,29.77,SSE,158,0.0,0.0,93,0.00,,,0.05,WUHU216HW,2013-01-24 03:05:00,
2013-01-23 19:10:00,37.6,35.7,29.77,SSE,158,0.0,0.0,93,0.00,,,0.05,WUHU216HW,2013-01-24 03:10:00,
2013-01-23 19:15:00,37.6,35.7,29.78,SSE,158,0.0,0.0,93,0.00,,,0.05,WUHU216HW,2013-01-24 03:15:00,
2013-01-23 19:20:00,37.6,36.0,29.78,SSE,158,0.0,0.0,94,0.00,,,0.05,WUHU216HW,2013-01-24 03:20:00,
2013-01-23 19:25:00,37.6,36.0,29.79,SSE,158,0.0,0.0,94,0.00,,,0.05,WUHU216HW,2013-01-24 03:25:00,
2013-01-23 19:30:00,37.8,36.2,29.79,SSE,158,0.0,0.0,94,0.00,,,0.05,WUHU216HW,2013-01-24 03:30:00,
2013-01-23 19:35:00,37.8,36.2,29.79,SSW,203,0.0,0.4,94,0.00,,,0.05,WUHU216HW,2013-01-24 03:35:00,
2013-01-23 19:40:00,37.8,36.2,29.79,SSW,203,0.0,0.7,94,0.00,,,0.05,WUHU216HW,2013-01-24 03:40:00,
2013-01-23 19:45:00,37.8,36.2,29.80,SSW,203,0.0,0.7,94,0.00,,,0.05,WUHU216HW,2013-01-24 03:45:00,
2013-01-23 19:50:00,37.8,36.2,29.80,SSW,203,0.0,0.0,94,0.00,,,0.05,WUHU216HW,2013-01-24 03:50:00,
2013-01-23 19:55:00,37.8,36.2,29.80,SSW,203,0.0,0.0,94,0.00,,,0.05,WUHU216HW,2013-01-24 03:55:00,
2013-01-23 20:00:00,37.8,36.2,29.81,SSW,203,0.0,0.0,94,0.00,,,0.05,WUHU216HW,2013-01-24 04:00:00,
2013-01-23 20:05:00,37.8,36.2,29.81,SSW,203,0.0,0.0,94,0.00,,,0.05,WUHU216HW,2013-01-24 04:05:00,
2013-01-23 20:10:00,37.8,36.2,29.81,SSW,203,0.0,0.0,94,0.00,,,0.05,WUHU216HW,2013-01-24 04:10:00,
2013-01-23 20:15:00,37.8,36.2,29.81,SSW,203,0.0,0.0,94,0.00,,,0.05,WUHU216HW,2013-01-24 04:15:00,
2013-01-23 20:20:00,38.0,36.4,29.81,SW,225,0.0,0.0,94,0.00,,,0.05,WUHU216HW,2013-01-24 04:20:00,
2013-01-23 20:25:00,38.0,36.4,29.81,SSW,203,0.0,0.2,94,0.00,,,0.05,WUHU216HW,2013-01-24 04:25:00,
2013-01-23 20:30:00,38.2,36.5,29.81,SSW,203,0.0,0.2,94,0.00,,,0.05,WUHU216HW,2013-01-24 04:30:00,
2013-01-23 20:35:00,38.2,36.5,29.81,SSW,203,0.0,0.0,94,0.00,,,0.05,WUHU216HW,2013-01-24 04:35:00,
2013-01-23 20:40:00,38.0,36.4,29.81,SSW,203,0.0,0.2,94,0.00,,,0.05,WUHU216HW,2013-01-24 04:40:00,
2013-01-23 20:45:00,37.8,36.2,29.82,SSW,203,0.0,0.2,94,0.00,,,0.05,WUHU216HW,2013-01-24 04:45:00,
2013-01-23 20:50:00,37.6,36.0,29.82,SSW,203,0.0,0.0,94,0.00,,,0.05,WUHU216HW,2013-01-24 04:50:00,
2013-01-23 20:55:00,37.4,35.8,29.82,SSW,203,0.0,0.0,94,0.00,,,0.05,WUHU216HW,2013-01-24 04:55:00,
2013-01-23 21:00:00,37.1,35.5,29.82,SSW,203,0.0,0.0,94,0.00,,,0.05,WUHU216HW,2013-01-24 05:00:00,
2013-01-23 21:01:00,37.1,35.5,29.82,SSW,203,0.0,0.0,94,0.00,,,0.05,WUHU216HW,2013-01-24 05:01:00,
2013-01-23 21:02:00,37.1,35.5,29.82,SSW,203,0.0,0.0,94,0.00,,,0.05,WUHU216HW,2013-01-24 05:02:00,
2013-01-23 21:07:00,36.7,34.8,29.82,SSW,203,0.0,0.0,93,0.00,,,0.05,WUHU216HW,2013-01-24 05:07:00,
2013-01-23 21:12:00,36.5,34.9,29.83,SSW,203,0.0,0.0,94,0.00,,,0.05,WUHU216HW,2013-01-24 05:12:00,
2013-01-23 21:17:00,36.4,34.5,29.83,SSW,203,0.0,0.0,93,0.00,,,0.05,WUHU216HW,2013-01-24 05:17:00,
2013-01-23 21:22:00,36.0,34.1,29.83,SSW,203,0.0,0.0,93,0.00,,,0.05,WUHU216HW,2013-01-24 05:22:00,
2013-01-23 21:27:00,35.6,33.8,29.83,SSW,203,0.0,0.0,93,0.00,,,0.05,WUHU216HW,2013-01-24 05:27:00,
2013-01-23 21:32:00,35.6,34.0,29.83,SSW,203,0.0,0.0,94,0.00,,,0.05,WUHU216HW,2013-01-24 05:32:00,
2013-01-23 21:37:00,35.5,33.8,29.83,SSW,203,0.0,0.0,94,0.00,,,0.05,WUHU216HW,2013-01-24 05:37:00,
2013-01-23 21:42:00,35.3,33.7,29.84,SSW,203,0.0,0.0,94,0.00,,,0.05,WUHU216HW,2013-01-24 05:42:00,
2013-01-23 21:47:00,35.1,33.5,29.84,SSW,203,0.0,0.0,94,0.00,,,0.05,WUHU216HW,2013-01-24 05:47:00,
2013-01-23 21:51:00,34.9,33.3,29.84,SSW,203,0.0,0.0,94,0.00,,,0.05,WUHU216HW,2013-01-24 05:51:00,